createdAt,value
2022-09-12T00:01:31.532Z,97766.03
2022-09-12T00:04:02.428Z,97769.28
2022-09-12T00:06:33.658Z,97766.97
2022-09-12T00:09:05.176Z,97767.53
2022-09-12T00:11:37.755Z,97767.88
2022-09-12T00:14:07.876Z,97765.56
2022-09-12T00:16:37.760Z,97766.78
2022-09-12T00:19:07.742Z,97763.00
2022-09-12T00:21:37.997Z,97754.03
2022-09-12T00:24:06.974Z,97758.41
2022-09-12T00:26:36.605Z,97763.09
2022-09-12T00:29:05.224Z,97769.66
2022-09-12T00:31:33.561Z,97773.50
2022-09-12T00:34:02.233Z,97766.88
2022-09-12T00:36:31.493Z,97760.22
2022-09-12T00:39:00.122Z,97757.91
2022-09-12T00:41:32.230Z,97754.75
2022-09-12T00:44:05.753Z,97754.31
2022-09-12T00:46:41.672Z,97757.53
2022-09-12T00:49:16.516Z,97752.91
2022-09-12T00:51:49.576Z,97754.94
2022-09-12T00:54:23.036Z,97753.47
2022-09-12T00:56:55.295Z,97750.31
2022-09-12T00:59:28.942Z,97748.00
2022-09-12T01:01:58.065Z,97751.88
2022-09-12T01:04:28.893Z,97738.16
2022-09-12T01:06:59.530Z,97736.50
2022-09-12T01:09:27.937Z,97727.81
2022-09-12T01:11:57.150Z,97724.66
2022-09-12T01:14:26.907Z,97733.53
2022-09-12T01:16:55.198Z,97723.19
2022-09-12T01:20:05.807Z,97731.31
2022-09-12T01:23:01.680Z,97731.19
2022-09-12T01:25:39.634Z,97733.38
2022-09-12T01:28:30.279Z,97725.91
2022-09-12T01:31:05.170Z,97722.59
2022-09-12T01:33:52.842Z,97729.13
2022-09-12T01:36:39.275Z,97717.13
2022-09-12T01:39:21.002Z,97719.97
2022-09-12T01:41:59.356Z,97716.00
2022-09-12T01:44:37.710Z,97714.50
2022-09-12T01:47:13.621Z,97713.88
2022-09-12T01:49:53.200Z,97715.22
2022-09-12T01:52:26.666Z,97715.41
2022-09-12T01:55:01.607Z,97717.44
2022-09-12T01:57:36.488Z,97721.94
2022-09-12T02:00:09.173Z,97720.47
2022-09-12T02:02:42.329Z,97712.81
2022-09-12T02:05:16.275Z,97727.38
2022-09-12T02:07:49.677Z,97715.34
2022-09-12T02:10:21.605Z,97715.69
2022-09-12T02:12:54.696Z,97705.53
2022-09-12T02:15:33.716Z,97709.22
2022-09-12T02:18:06.543Z,97708.75
2022-09-12T02:20:48.617Z,97703.94
2022-09-12T02:23:22.406Z,97713.09
2022-09-12T02:25:54.118Z,97718.78
2022-09-12T02:28:27.833Z,97706.81
2022-09-12T02:31:05.129Z,97702.81
2022-09-12T02:33:44.451Z,97701.16
2022-09-12T02:36:24.533Z,97694.50
2022-09-12T02:38:52.909Z,97702.53
2022-09-12T02:41:22.845Z,97701.84
2022-09-12T02:43:53.070Z,97697.53
2022-09-12T02:46:26.211Z,97697.88
2022-09-12T02:48:56.732Z,97697.03
2022-09-12T02:51:25.306Z,97695.56
2022-09-12T02:53:54.409Z,97697.09
2022-09-12T02:56:29.042Z,97702.63
2022-09-12T02:59:02.946Z,97692.28
2022-09-12T03:01:51.252Z,97691.78
2022-09-12T03:04:55.408Z,97687.16
2022-09-12T03:07:42.742Z,97699.00
2022-09-12T03:10:21.417Z,97691.19
2022-09-12T03:13:00.897Z,97692.16
2022-09-12T03:15:44.461Z,97696.88
2022-09-12T03:18:36.078Z,97692.69
2022-09-12T03:21:13.868Z,97693.03
2022-09-12T03:23:54.340Z,97692.75
2022-09-12T03:26:31.935Z,97693.53
2022-09-12T03:29:03.300Z,97690.59
2022-09-12T03:31:31.741Z,97696.75
2022-09-12T03:34:01.239Z,97695.25
2022-09-12T03:36:32.002Z,97690.09
2022-09-12T03:39:00.253Z,97685.75
2022-09-12T03:41:28.583Z,97688.59
2022-09-12T03:43:56.992Z,97690.78
2022-09-12T03:46:25.318Z,97690.13
2022-09-12T03:48:53.550Z,97688.44
2022-09-12T03:51:22.256Z,97683.28
2022-09-12T03:53:51.857Z,97687.81
2022-09-12T03:56:20.342Z,97690.66
2022-09-12T03:58:48.827Z,97689.97
2022-09-12T04:01:20.846Z,97694.81
2022-09-12T04:03:52.846Z,97684.31
2022-09-12T04:06:23.543Z,97688.00
2022-09-12T04:08:55.323Z,97680.31
2022-09-12T04:11:24.525Z,97687.47
2022-09-12T04:13:52.867Z,97682.47
2022-09-12T04:16:21.456Z,97684.50
2022-09-12T04:18:49.709Z,97684.50
2022-09-12T04:21:21.805Z,97679.50
2022-09-12T04:23:50.345Z,97682.16
2022-09-12T04:26:21.491Z,97683.50
2022-09-12T04:28:54.693Z,97680.19
2022-09-12T04:31:23.565Z,97678.53
2022-09-12T04:33:56.270Z,97691.03
2022-09-12T04:36:25.112Z,97692.84
2022-09-12T04:38:53.766Z,97683.19
2022-09-12T04:41:26.481Z,97690.34
2022-09-12T04:43:58.225Z,97685.84
2022-09-12T04:46:27.674Z,97690.34
2022-09-12T04:48:57.192Z,97688.53
2022-09-12T04:51:28.289Z,97685.34
2022-09-12T04:53:58.854Z,97687.69
2022-09-12T04:56:30.405Z,97685.84
2022-09-12T04:59:00.497Z,97677.19
2022-09-12T05:01:30.896Z,97684.19
2022-09-12T05:04:00.340Z,97691.19
2022-09-12T05:06:31.593Z,97692.84
2022-09-12T05:09:01.829Z,97699.03
2022-09-12T05:12:00.062Z,97693.84
2022-09-12T05:14:21.926Z,97686.03
2022-09-12T05:16:50.226Z,97696.69
2022-09-12T05:19:18.733Z,97700.38
2022-09-12T05:21:47.059Z,97703.38
2022-09-12T05:24:15.311Z,97705.38
2022-09-12T05:26:44.884Z,97705.53
2022-09-12T05:29:13.253Z,97707.53
2022-09-12T05:31:41.875Z,97713.88
2022-09-12T05:34:11.315Z,97721.19
2022-09-12T05:36:39.620Z,97728.22
2022-09-12T05:39:08.585Z,97728.22
2022-09-12T05:41:36.946Z,97725.38
2022-09-12T05:44:11.802Z,97720.06
2022-09-12T05:46:42.238Z,97722.72
2022-09-12T05:49:13.634Z,97719.03
2022-09-12T05:51:44.100Z,97713.53
2022-09-12T05:54:15.514Z,97725.69
2022-09-12T05:56:45.324Z,97721.03
2022-09-12T05:59:17.461Z,97727.03
2022-09-12T06:01:46.411Z,97727.50
2022-09-12T06:04:15.070Z,97729.00
2022-09-12T06:06:45.989Z,97730.53
2022-09-12T06:09:16.153Z,97734.50
2022-09-12T06:11:46.150Z,97730.66
2022-09-12T06:14:18.154Z,97731.16
2022-09-12T06:16:47.285Z,97735.19
2022-09-12T06:19:18.492Z,97743.84
2022-09-12T06:21:48.347Z,97730.34
2022-09-12T06:24:17.625Z,97740.50
2022-09-12T06:26:47.463Z,97739.50
2022-09-12T06:29:17.459Z,97736.66
2022-09-12T06:31:47.021Z,97736.47
2022-09-12T06:34:17.037Z,97743.34
2022-09-12T06:36:47.777Z,97741.97
2022-09-12T06:39:18.084Z,97738.97
2022-09-12T06:41:46.939Z,97731.28
2022-09-12T06:44:19.304Z,97733.41
2022-09-12T06:46:48.193Z,97730.41
2022-09-12T06:49:17.574Z,97735.06
2022-09-12T06:51:46.024Z,97730.88
2022-09-12T06:54:16.887Z,97732.19
2022-09-12T06:56:45.988Z,97733.31
2022-09-12T06:59:15.932Z,97727.28
2022-09-12T07:01:44.276Z,97731.13
2022-09-12T07:04:12.716Z,97727.09
2022-09-12T07:06:44.543Z,97727.94
2022-09-12T07:09:16.362Z,97727.03
2022-09-12T07:11:45.355Z,97731.84
2022-09-12T07:14:16.877Z,97735.00
2022-09-12T07:16:45.480Z,97737.16
2022-09-12T07:19:13.772Z,97750.69
2022-09-12T07:21:42.155Z,97738.78
2022-09-12T07:24:11.649Z,97729.06
2022-09-12T07:26:42.140Z,97733.06
2022-09-12T07:29:36.902Z,97737.69
2022-09-12T07:32:06.695Z,97737.81
2022-09-12T07:34:35.913Z,97740.59
2022-09-12T07:37:04.187Z,97743.38
2022-09-12T07:39:32.541Z,97740.84
2022-09-12T07:42:01.460Z,97741.78
2022-09-12T07:44:31.147Z,97731.00
2022-09-12T07:46:59.415Z,97737.28
2022-09-12T07:49:27.656Z,97739.06
2022-09-12T07:51:55.973Z,97742.84
2022-09-12T07:54:24.628Z,97742.81
2022-09-12T07:56:52.835Z,97740.09
2022-09-12T07:59:35.659Z,97734.63
2022-09-12T08:02:17.484Z,97739.25
2022-09-12T08:04:47.733Z,97742.47
2022-09-12T08:07:18.357Z,97744.91
2022-09-12T08:09:47.313Z,97744.28
2022-09-12T08:12:16.561Z,97748.75
2022-09-12T08:14:44.937Z,97743.69
2022-09-12T08:17:14.584Z,97738.78
2022-09-12T08:19:42.879Z,97732.59
2022-09-12T08:22:11.239Z,97730.78
2022-09-12T08:24:40.478Z,97721.91
2022-09-12T08:27:09.212Z,97731.59
2022-09-12T08:29:37.410Z,97732.00
2022-09-12T08:32:05.763Z,97737.09
2022-09-12T08:34:35.358Z,97739.16
2022-09-12T08:37:04.121Z,97729.13
2022-09-12T08:39:32.695Z,97737.28
2022-09-12T08:42:04.271Z,97741.53
2022-09-12T08:45:02.137Z,97733.53
2022-09-12T08:47:33.998Z,97731.06
2022-09-12T08:50:16.469Z,97725.94
2022-09-12T08:52:53.999Z,97729.63
2022-09-12T08:55:32.758Z,97727.28
2022-09-12T08:58:02.617Z,97729.53
2022-09-12T09:00:44.626Z,97722.81
2022-09-12T09:03:49.447Z,97717.50
2022-09-12T09:06:43.842Z,97714.94
2022-09-12T09:09:20.032Z,97718.13
2022-09-12T09:12:01.438Z,97710.72
2022-09-12T09:14:54.383Z,97714.94
2022-09-12T09:17:30.312Z,97716.25
2022-09-12T09:20:05.585Z,97708.16
2022-09-12T09:22:45.590Z,97705.25
2022-09-12T09:25:23.071Z,97699.28
2022-09-12T09:27:58.851Z,97703.47
2022-09-12T09:30:28.588Z,97707.81
2022-09-12T09:33:00.937Z,97702.38
2022-09-12T09:35:42.601Z,97703.19
2022-09-12T09:38:27.004Z,97694.41
2022-09-12T09:41:20.977Z,97691.84
2022-09-12T09:43:49.282Z,97692.03
2022-09-12T09:46:17.668Z,97689.34
2022-09-12T09:48:49.406Z,97687.81
2022-09-12T09:51:28.018Z,97692.75
2022-09-12T09:54:02.440Z,97691.44
2022-09-12T09:56:37.034Z,97695.84
2022-09-12T09:59:12.879Z,97685.78
2022-09-12T10:01:47.880Z,97689.63
2022-09-12T10:04:22.597Z,97683.72
2022-09-12T10:06:54.364Z,97685.34
2022-09-12T10:09:27.747Z,97687.69
2022-09-12T10:11:57.715Z,97682.53
2022-09-12T10:14:36.767Z,97683.69
2022-09-12T10:17:33.199Z,97680.00
2022-09-12T10:20:20.431Z,97680.09
2022-09-12T10:22:50.294Z,97670.38
2022-09-12T10:25:21.545Z,97679.19
2022-09-12T10:27:56.290Z,97675.03
2022-09-12T10:30:28.282Z,97676.53
2022-09-12T10:33:07.522Z,97668.72
2022-09-12T10:35:47.200Z,97673.91
2022-09-12T10:38:23.435Z,97678.16
2022-09-12T10:41:00.444Z,97675.13
2022-09-12T10:43:33.116Z,97681.75
2022-09-12T10:46:22.888Z,97682.88
2022-09-12T10:48:53.611Z,97675.97
2022-09-12T10:51:29.858Z,97676.69
2022-09-12T10:54:00.643Z,97672.94
2022-09-12T10:56:32.910Z,97670.28
2022-09-12T10:59:22.506Z,97664.13
2022-09-12T11:01:56.114Z,97660.03
2022-09-12T11:04:41.922Z,97655.53
2022-09-12T11:07:37.926Z,97657.25
2022-09-12T11:10:21.945Z,97653.41
2022-09-12T11:13:01.826Z,97653.59
2022-09-12T11:15:46.140Z,97651.38
2022-09-12T11:18:34.886Z,97658.16
2022-09-12T11:21:27.522Z,97649.94
2022-09-12T11:24:28.738Z,97652.63
2022-09-12T11:27:12.105Z,97655.72
2022-09-12T11:29:51.186Z,97651.16
2022-09-12T11:32:53.458Z,97646.91
2022-09-12T11:35:27.425Z,97653.81
2022-09-12T11:38:27.031Z,97650.59
2022-09-12T11:40:58.133Z,97655.34
2022-09-12T11:43:37.408Z,97646.41
2022-09-12T11:46:16.780Z,97644.06
2022-09-12T11:48:54.804Z,97640.88
2022-09-12T11:51:28.960Z,97643.38
2022-09-12T11:54:17.209Z,97643.75
2022-09-12T11:56:48.850Z,97643.31
2022-09-12T11:59:32.416Z,97643.13
2022-09-12T12:02:03.223Z,97640.25
2022-09-12T12:04:41.201Z,97640.31
2022-09-12T12:07:12.409Z,97638.78
2022-09-12T12:09:50.393Z,97634.75
2022-09-12T12:12:25.317Z,97633.44
2022-09-12T12:14:55.868Z,97632.91
2022-09-12T12:17:27.045Z,97632.13
2022-09-12T12:20:05.793Z,97633.19
2022-09-12T12:22:37.209Z,97628.78
2022-09-12T12:25:28.856Z,97617.56
2022-09-12T12:28:01.798Z,97622.13
2022-09-12T12:31:03.244Z,97623.88
2022-09-12T12:34:04.379Z,97602.50
2022-09-12T12:36:43.874Z,97609.47
2022-09-12T12:40:05.910Z,97607.47
2022-09-12T12:43:31.927Z,97602.22
2022-09-12T12:46:10.534Z,97604.94
2022-09-12T12:49:12.610Z,97610.41
2022-09-12T12:52:01.485Z,97596.50
2022-09-12T12:54:58.982Z,97589.75
2022-09-12T12:57:34.378Z,97586.50
2022-09-12T13:00:08.426Z,97584.34
2022-09-12T13:02:40.047Z,97586.28
2022-09-12T13:05:21.422Z,97581.06
2022-09-12T13:07:57.703Z,97580.81
2022-09-12T13:10:29.498Z,97580.81
2022-09-12T13:13:01.796Z,97584.63
2022-09-12T13:15:57.339Z,97580.78
2022-09-12T13:18:29.386Z,97579.69
2022-09-12T13:21:09.569Z,97582.16
2022-09-12T13:23:38.132Z,97579.69
2022-09-12T13:26:14.057Z,97569.63
2022-09-12T13:28:42.508Z,97575.63
2022-09-12T13:31:21.475Z,97573.19
2022-09-12T13:33:52.519Z,97568.53
2022-09-12T13:37:07.042Z,97565.03
2022-09-12T13:39:49.594Z,97560.88
2022-09-12T13:42:42.713Z,97562.25
2022-09-12T13:45:21.265Z,97551.59
2022-09-12T13:47:58.395Z,97550.47
2022-09-12T13:50:29.961Z,97542.81
2022-09-12T13:53:03.311Z,97548.19
2022-09-12T13:55:36.327Z,97548.38
2022-09-12T13:58:06.683Z,97547.53
2022-09-12T14:00:37.265Z,97547.47
2022-09-12T14:03:47.538Z,97553.16
2022-09-12T14:06:16.364Z,97541.41
2022-09-12T14:08:48.187Z,97531.81
2022-09-12T14:11:27.066Z,97546.78
2022-09-12T14:13:56.313Z,97537.22
2022-09-12T14:16:27.381Z,97536.06
2022-09-12T14:18:56.183Z,97531.97
2022-09-12T14:21:37.224Z,97529.25
2022-09-12T14:24:10.851Z,97523.81
2022-09-12T14:26:41.227Z,97527.28
2022-09-12T14:29:13.570Z,97527.22
2022-09-12T14:31:43.589Z,97520.63
2022-09-12T14:34:15.577Z,97519.50
2022-09-12T14:36:47.816Z,97518.09
2022-09-12T14:39:30.874Z,97521.84
2022-09-12T14:42:07.063Z,97507.13
2022-09-12T14:44:36.882Z,97510.09
2022-09-12T14:47:19.355Z,97499.19
2022-09-12T14:49:47.713Z,97501.06
2022-09-12T14:52:27.686Z,97502.06
2022-09-12T14:55:03.009Z,97500.63
2022-09-12T14:57:40.118Z,97504.69
2022-09-12T15:00:23.210Z,97500.47
2022-09-12T15:02:53.656Z,97499.31
2022-09-12T15:05:26.789Z,97500.03
2022-09-12T15:07:59.026Z,97507.03
2022-09-12T15:10:33.043Z,97502.38
2022-09-12T15:13:20.752Z,97500.34
2022-09-12T15:15:53.013Z,97495.66
2022-09-12T15:18:24.511Z,97488.75
2022-09-12T15:20:55.885Z,97485.16
2022-09-12T15:23:35.097Z,97494.59
2022-09-12T15:26:05.837Z,97484.44
2022-09-12T15:28:34.928Z,97487.13
2022-09-12T15:31:08.912Z,97491.56
2022-09-12T15:33:37.285Z,97489.59
2022-09-12T15:36:14.573Z,97485.16
2022-09-12T15:38:44.657Z,97485.31
2022-09-12T15:41:18.600Z,97490.44
2022-09-12T15:43:47.927Z,97495.53
2022-09-12T15:46:19.279Z,97492.72
2022-09-12T15:48:47.714Z,97488.03
2022-09-12T15:51:18.322Z,97494.19
2022-09-12T15:53:48.274Z,97490.56
2022-09-12T15:56:20.125Z,97485.06
2022-09-12T15:58:58.692Z,97488.50
2022-09-12T16:01:29.335Z,97486.78
2022-09-12T16:03:58.246Z,97487.50
2022-09-12T16:06:27.204Z,97480.09
2022-09-12T16:08:55.456Z,97478.38
2022-09-12T16:11:27.708Z,97480.97
2022-09-12T16:13:56.843Z,97480.88
2022-09-12T16:16:25.192Z,97477.50
2022-09-12T16:18:53.556Z,97483.91
2022-09-12T16:21:21.846Z,97479.66
2022-09-12T16:23:50.269Z,97473.81
2022-09-12T16:26:19.009Z,97469.81
2022-09-12T16:28:48.958Z,97472.09
2022-09-12T16:31:17.477Z,97465.16
2022-09-12T16:33:45.783Z,97463.66
2022-09-12T16:36:16.932Z,97462.16
2022-09-12T16:38:47.222Z,97451.66
2022-09-12T16:41:17.377Z,97452.84
2022-09-12T16:43:46.885Z,97450.28
2022-09-12T16:46:20.882Z,97443.56
2022-09-12T16:48:52.821Z,97451.00
2022-09-12T16:51:23.643Z,97451.13
2022-09-12T16:53:52.310Z,97452.31
2022-09-12T16:56:22.148Z,97454.09
2022-09-12T16:58:50.763Z,97449.84
2022-09-12T17:01:22.936Z,97451.00
2022-09-12T17:03:55.200Z,97453.56
2022-09-12T17:06:23.524Z,97454.50
2022-09-12T17:08:54.005Z,97453.81
2022-09-12T17:11:24.874Z,97444.97
2022-09-12T17:14:11.705Z,97444.25
2022-09-12T17:16:48.031Z,97443.53
2022-09-12T17:19:22.608Z,97450.94
2022-09-12T17:21:50.936Z,97447.31
2022-09-12T17:24:19.978Z,97446.56
2022-09-12T17:26:48.373Z,97452.84
2022-09-12T17:29:18.073Z,97451.06
2022-09-12T17:31:48.135Z,97455.75
2022-09-12T17:34:17.636Z,97451.03
2022-09-12T17:36:48.418Z,97448.41
2022-09-12T17:39:17.107Z,97453.94
2022-09-12T17:41:46.116Z,97450.50
2022-09-12T17:44:16.037Z,97464.09
2022-09-12T17:46:44.931Z,97460.06
2022-09-12T17:49:16.688Z,97457.66
2022-09-12T17:51:45.889Z,97465.00
2022-09-12T17:54:16.980Z,97474.63
2022-09-12T17:56:49.001Z,97460.38
2022-09-12T17:59:20.013Z,97468.53
2022-09-12T18:02:06.368Z,97476.47
2022-09-12T18:04:36.486Z,97476.56
2022-09-12T18:07:05.121Z,97473.69
2022-09-12T18:09:33.466Z,97467.78
2022-09-12T18:12:01.808Z,97473.97
2022-09-12T18:14:30.402Z,97467.22
2022-09-12T18:17:00.232Z,97474.56
2022-09-12T18:19:29.359Z,97467.97
2022-09-12T18:21:59.651Z,97464.28
2022-09-12T18:24:28.161Z,97467.84
2022-09-12T18:26:57.665Z,97467.06
2022-09-12T18:29:27.915Z,97459.03
2022-09-12T18:31:56.259Z,97460.72
2022-09-12T18:34:24.570Z,97462.44
2022-09-12T18:36:54.857Z,97445.28
2022-09-12T18:39:27.664Z,97453.63
2022-09-12T18:41:56.935Z,97455.34
2022-09-12T18:44:25.280Z,97464.31
2022-09-12T18:46:53.957Z,97468.72
2022-09-12T18:49:22.357Z,97466.63
2022-09-12T18:51:50.695Z,97466.66
2022-09-12T18:54:19.415Z,97468.38
2022-09-12T18:56:49.282Z,97469.25
2022-09-12T18:59:17.809Z,97470.09
2022-09-12T19:01:46.334Z,97470.97
2022-09-12T19:04:16.540Z,97459.63
2022-09-12T19:06:46.934Z,97467.72
2022-09-12T19:09:18.075Z,97468.59
2022-09-12T19:11:50.159Z,97469.44
2022-09-12T19:14:22.654Z,97471.97
2022-09-12T19:16:52.158Z,97463.06
2022-09-12T19:19:21.271Z,97460.19
2022-09-12T19:21:49.678Z,97457.06
2022-09-12T19:24:18.411Z,97454.19
2022-09-12T19:26:49.200Z,97457.94
2022-09-12T19:29:17.880Z,97459.63
2022-09-12T19:31:47.058Z,97458.63
2022-09-12T19:34:15.823Z,97454.28
2022-09-12T19:36:46.336Z,97471.06
2022-09-12T19:39:16.442Z,97463.00
2022-09-12T19:41:45.468Z,97466.31
2022-09-12T19:44:15.730Z,97459.72
2022-09-12T19:46:44.191Z,97454.75
2022-09-12T19:49:13.760Z,97454.31
2022-09-12T19:51:42.527Z,97450.81
2022-09-12T19:54:11.114Z,97443.34
2022-09-12T19:56:39.454Z,97454.72
2022-09-12T19:59:08.772Z,97458.25
2022-09-12T20:01:38.655Z,97455.19
2022-09-12T20:04:07.720Z,97456.00
2022-09-12T20:06:36.870Z,97446.09
2022-09-12T20:09:05.474Z,97454.97
2022-09-12T20:11:34.005Z,97455.59
2022-09-12T20:14:02.512Z,97452.25
2022-09-12T20:16:31.702Z,97451.84
2022-09-12T20:19:06.013Z,97456.41
2022-09-12T20:21:36.116Z,97455.34
2022-09-12T20:24:07.045Z,97455.16
2022-09-12T20:26:35.954Z,97452.03
2022-09-12T20:29:05.398Z,97451.97
2022-09-12T20:31:34.630Z,97442.88
2022-09-12T20:34:04.548Z,97443.50
2022-09-12T20:36:33.103Z,97438.94
2022-09-12T20:39:03.037Z,97435.22
2022-09-12T20:41:35.305Z,97445.53
2022-09-12T20:44:04.085Z,97435.59
2022-09-12T20:46:33.138Z,97445.09
2022-09-12T20:49:02.794Z,97438.69
2022-09-12T20:51:31.364Z,97443.63
2022-09-12T20:54:01.683Z,97443.19
2022-09-12T20:56:31.740Z,97447.31
2022-09-12T20:59:01.045Z,97442.53
2022-09-12T21:01:31.307Z,97446.84
2022-09-12T21:04:01.476Z,97447.66
2022-09-12T21:06:32.434Z,97451.13
2022-09-12T21:09:00.905Z,97452.75
2022-09-12T21:11:29.917Z,97456.00
2022-09-12T21:13:58.496Z,97455.78
2022-09-12T21:16:26.925Z,97446.03
2022-09-12T21:18:57.182Z,97439.41
2022-09-12T21:21:25.953Z,97440.00
2022-09-12T21:23:59.700Z,97440.78
2022-09-12T21:26:28.370Z,97442.84
2022-09-12T21:28:56.809Z,97438.06
2022-09-12T21:31:26.474Z,97438.47
2022-09-12T21:33:54.800Z,97433.50
2022-09-12T21:36:23.153Z,97440.09
2022-09-12T21:38:51.424Z,97441.69
2022-09-12T21:41:21.062Z,97439.59
2022-09-12T21:43:49.880Z,97441.19
2022-09-12T21:46:18.625Z,97440.97
2022-09-12T21:48:47.162Z,97441.38
2022-09-12T21:51:15.434Z,97439.88
2022-09-12T21:53:43.714Z,97440.66
2022-09-12T21:56:12.051Z,97447.22
2022-09-12T21:58:41.723Z,97443.28
2022-09-12T22:01:12.966Z,97443.84
2022-09-12T22:03:43.071Z,97439.91
2022-09-12T22:06:14.802Z,97437.63
2022-09-12T22:08:43.366Z,97435.13
2022-09-12T22:11:11.678Z,97439.19
2022-09-12T22:13:43.822Z,97430.09
2022-09-12T22:16:12.780Z,97435.00
2022-09-12T22:18:41.331Z,97434.75
2022-09-12T22:21:13.387Z,97436.34
2022-09-12T22:23:59.437Z,97424.56
2022-09-12T22:26:28.188Z,97433.16
2022-09-12T22:28:57.888Z,97437.06
2022-09-12T22:31:27.016Z,97425.06
2022-09-12T22:33:57.111Z,97423.78
2022-09-12T22:36:30.461Z,97428.72
2022-09-12T22:38:59.724Z,97434.44
2022-09-12T22:41:28.498Z,97437.50
2022-09-12T22:43:58.507Z,97437.88
2022-09-12T22:46:27.277Z,97444.03
2022-09-12T22:48:56.051Z,97444.41
2022-09-12T22:51:24.403Z,97435.94
2022-09-12T22:53:52.796Z,97430.78
2022-09-12T22:56:21.241Z,97431.97
2022-09-12T22:58:49.590Z,97431.50
2022-09-12T23:01:19.439Z,97425.69
2022-09-12T23:03:47.929Z,97424.06
2022-09-12T23:06:16.457Z,97419.88
2022-09-12T23:08:45.030Z,97411.44
2022-09-12T23:11:15.730Z,97405.25
2022-09-12T23:13:46.188Z,97398.44
2022-09-12T23:16:20.132Z,97402.31
2022-09-12T23:18:49.439Z,97399.66
2022-09-12T23:21:20.513Z,97392.81
2022-09-12T23:23:49.029Z,97388.66
2022-09-12T23:26:20.037Z,97393.38
2022-09-12T23:28:53.917Z,97394.78
2022-09-12T23:31:25.766Z,97394.31
2022-09-12T23:33:54.797Z,97394.69
2022-09-12T23:36:23.913Z,97397.34
2022-09-12T23:38:52.552Z,97394.25
2022-09-12T23:41:20.897Z,97393.97
2022-09-12T23:43:49.359Z,97402.66
2022-09-12T23:46:19.173Z,97400.34
2022-09-12T23:48:49.462Z,97395.38
2022-09-12T23:51:18.097Z,97392.03
2022-09-12T23:53:46.478Z,97390.59
2022-09-12T23:56:14.826Z,97381.91
2022-09-12T23:58:43.057Z,97380.63
